Time;durP1;ratioP1;P1;durP2;ratioP2;P2;SDS_P1;SDS_P2;PMS_P1;PMS_P2;Temp;Humidity;BMP_temperature;BMP_pressure;BME280_temperature;BME280_humidity;BME280_pressure;Samples;Min_cycle;Max_cycle;Signal;HPM_P1;HPM_P2
2022/06/18 00:00:40;;;;;;;7.40;2.90;;;;;;;21.85;58.28;101606.91;6251162;22;20004;-86
2022/06/18 00:03:06;;;;;;;7.80;3.30;;;;;;;21.78;58.12;101596.13;6200589;22;20031;-86
2022/06/18 00:05:35;;;;;;;6.45;2.95;;;;;;;21.72;58.56;101594.47;6251008;22;20425;-86
2022/06/18 00:08:01;;;;;;;5.17;3.10;;;;;;;21.67;59.11;101603.56;6225537;22;20090;-86
2022/06/18 00:10:30;;;;;;;4.65;2.92;;;;;;;21.64;59.13;101601.38;6251369;22;20035;-86
2022/06/18 00:15:51;;;;;;;5.30;2.90;;;;;;;21.54;59.24;101590.28;6278069;22;20014;-86
2022/06/18 00:18:16;;;;;;;6.70;3.38;;;;;;;21.52;59.39;101596.06;6201305;22;20008;-86
2022/06/18 00:20:44;;;;;;;5.73;3.03;;;;;;;21.48;59.82;101591.31;6277601;22;20394;-86
2022/06/18 00:23:14;;;;;;;6.47;3.00;;;;;;;21.37;60.36;101587.69;6251281;22;20007;-86
2022/06/18 00:25:44;;;;;;;6.87;3.30;;;;;;;21.35;60.13;101579.69;6250754;22;20010;-86
2022/06/18 00:28:15;;;;;;;5.32;2.83;;;;;;;21.30;60.48;101578.84;6278651;22;20406;-86
2022/06/18 00:30:41;;;;;;;4.93;3.22;;;;;;;21.26;60.58;101581.31;6250782;22;20008;-86
2022/06/18 00:33:07;;;;;;;10.75;3.42;;;;;;;21.30;60.44;101590.69;6277915;22;20016;-86
2022/06/18 00:35:36;;;;;;;5.00;3.60;;;;;;;21.20;60.54;101585.16;6250748;22;20486;-86
2022/06/18 00:38:04;;;;;;;4.45;3.20;;;;;;;21.15;60.77;101582.38;6250701;22;20007;-86
2022/06/18 00:40:35;;;;;;;4.68;3.13;;;;;;;21.15;61.22;101596.97;6250188;22;20011;-86
2022/06/18 00:43:38;;;;;;;5.95;3.20;;;;;;;21.01;60.95;101574.59;6250811;22;20003;-86
2022/06/18 00:46:28;;;;;;;7.80;3.42;;;;;;;20.96;60.94;101580.06;6227386;22;20015;-86
2022/06/18 00:49:02;;;;;;;5.97;3.30;;;;;;;20.99;62.33;101593.34;6250525;22;20178;-86
2022/06/18 00:51:30;;;;;;;6.43;3.30;;;;;;;20.88;62.32;101574.25;6277242;22;19999;-86
2022/06/18 00:54:22;;;;;;;7.15;3.30;;;;;;;20.89;62.36;101585.00;6250407;22;20030;-86
2022/06/18 00:56:56;;;;;;;3.40;3.10;;;;;;;20.81;63.32;101574.47;6250295;22;20018;-86
2022/06/18 00:59:37;;;;;;;6.20;3.30;;;;;;;20.81;63.00;101583.56;6250459;22;20417;-86
2022/06/18 01:02:03;;;;;;;4.70;3.23;;;;;;;20.74;63.47;101573.88;6250665;22;20007;-86
2022/06/18 01:04:36;;;;;;;3.97;3.50;;;;;;;20.76;63.60;101583.53;6250484;22;20291;-86
2022/06/18 01:07:31;;;;;;;8.15;3.55;;;;;;;20.78;62.58;101580.53;6277110;22;20030;-86
2022/06/18 01:09:57;;;;;;;7.30;3.42;;;;;;;20.66;63.42;101577.97;6249989;22;20008;-86
2022/06/18 01:12:31;;;;;;;6.93;3.80;;;;;;;20.61;63.83;101564.94;6250722;22;20425;-86
2022/06/18 01:15:05;;;;;;;8.93;3.70;;;;;;;20.57;64.23;101566.56;6250520;22;20019;-86
2022/06/18 01:17:32;;;;;;;5.78;3.75;;;;;;;20.58;64.63;101576.50;6250285;22;20004;-86
2022/06/18 01:20:00;;;;;;;11.20;4.10;;;;;;;20.50;64.65;101564.03;6250024;22;20050;-86
2022/06/18 01:22:39;;;;;;;4.72;3.50;;;;;;;20.57;64.49;101574.03;6249827;22;20086;-87
2022/06/18 01:25:10;;;;;;;3.95;3.55;;;;;;;20.51;65.06;101571.22;6249811;22;20007;-86
2022/06/18 01:27:37;;;;;;;8.00;3.60;;;;;;;20.41;65.02;101560.13;6250269;22;20030;-86
2022/06/18 01:30:16;;;;;;;4.65;3.33;;;;;;;20.39;64.99;101553.19;6249858;22;20004;-86
2022/06/18 01:32:46;;;;;;;7.50;3.65;;;;;;;20.35;65.48;101558.41;6258917;22;20064;-86
2022/06/18 01:35:12;;;;;;;5.78;3.60;;;;;;;20.32;65.66;101565.28;6306308;22;20319;-86
2022/06/18 01:37:40;;;;;;;8.73;4.00;;;;;;;20.29;66.21;101565.00;6307861;22;20007;-86
2022/06/18 01:40:20;;;;;;;4.73;3.83;;;;;;;20.28;66.35;101566.91;6306606;22;20011;-86
2022/06/18 01:42:48;;;;;;;5.47;3.75;;;;;;;20.30;66.51;101567.47;6306299;22;20078;-86
2022/06/18 01:45:25;;;;;;;5.22;3.90;;;;;;;20.26;65.40;101568.28;6307769;22;20003;-86
2022/06/18 01:47:59;;;;;;;5.22;3.97;;;;;;;20.26;66.33;101557.25;6308312;22;20007;-86
2022/06/18 01:50:27;;;;;;;5.63;4.00;;;;;;;20.30;66.23;101574.94;6306529;22;20015;-86
2022/06/18 01:53:11;;;;;;;8.43;3.87;;;;;;;20.21;66.25;101557.19;6306427;22;20060;-86
2022/06/18 01:55:52;;;;;;;8.25;4.15;;;;;;;20.18;66.01;101554.97;6306637;22;20456;-86
2022/06/18 01:58:34;;;;;;;7.68;4.00;;;;;;;20.19;66.36;101560.22;6306387;22;20019;-86
2022/06/18 02:01:01;;;;;;;6.80;4.07;;;;;;;20.13;66.75;101553.00;6306276;22;20449;-86
2022/06/18 02:03:36;;;;;;;8.13;4.40;;;;;;;20.10;66.61;101561.81;6306449;22;20007;-86
2022/06/18 02:06:04;;;;;;;6.83;4.37;;;;;;;20.10;67.19;101559.03;6306659;22;20014;-86
2022/06/18 02:08:30;;;;;;;8.63;4.95;;;;;;;20.02;67.23;101552.09;6308680;22;20004;-86
2022/06/18 02:10:59;;;;;;;5.28;4.50;;;;;;;20.06;67.28;101560.66;6307986;22;20010;-86
2022/06/18 02:13:36;;;;;;;7.43;4.65;;;;;;;19.98;67.53;101546.28;6308114;22;20014;-86
2022/06/18 02:16:10;;;;;;;7.50;4.38;;;;;;;19.96;67.55;101542.97;6307790;22;20429;-86
2022/06/18 02:18:39;;;;;;;6.53;4.57;;;;;;;20.00;67.87;101550.69;6306495;22;20013;-86
2022/06/18 02:21:09;;;;;;;7.88;4.40;;;;;;;19.94;68.08;101549.81;6305936;22;20054;-86
2022/06/18 02:23:35;;;;;;;7.80;4.28;;;;;;;19.90;68.28;101551.41;6306626;22;19999;-86
2022/06/18 02:26:04;;;;;;;8.82;4.72;;;;;;;19.94;68.59;101558.88;6306560;22;20026;-87
2022/06/18 02:28:33;;;;;;;7.63;4.90;;;;;;;19.85;68.42;101545.88;6306690;22;20003;-86
2022/06/18 02:31:01;;;;;;;8.02;4.65;;;;;;;19.82;68.26;101549.97;6306173;22;20060;-87
2022/06/18 02:33:50;;;;;;;6.97;4.85;;;;;;;19.81;67.85;101551.06;6305924;22;20034;-86
2022/06/18 02:36:24;;;;;;;10.40;5.25;;;;;;;19.82;68.31;101558.25;6307987;22;20003;-86
2022/06/18 02:39:00;;;;;;;9.18;4.95;;;;;;;19.74;68.51;101550.44;6306455;22;20007;-86
2022/06/18 02:41:35;;;;;;;7.47;4.70;;;;;;;19.75;68.91;101558.44;6306432;22;20083;-87
2022/06/18 02:44:01;;;;;;;13.98;4.90;;;;;;;19.69;69.11;101553.94;6306529;22;20007;-86
2022/06/18 02:46:27;;;;;;;7.63;4.70;;;;;;;19.67;69.33;101553.38;6306599;22;20056;-86
2022/06/18 02:49:00;;;;;;;7.63;5.13;;;;;;;19.58;69.34;101546.69;6309845;22;20359;-86
2022/06/18 02:51:26;;;;;;;7.60;5.05;;;;;;;19.53;69.90;101541.13;6307777;22;20006;-86
2022/06/18 02:53:57;;;;;;;9.17;5.30;;;;;;;19.56;70.12;101551.59;6308228;22;20011;-86
2022/06/18 02:56:24;;;;;;;9.15;5.15;;;;;;;19.44;70.24;101536.09;6282146;22;20042;-86
2022/06/18 02:58:50;;;;;;;7.60;5.35;;;;;;;19.51;70.19;101554.31;6309319;22;20003;-87
2022/06/18 03:01:20;;;;;;;11.13;5.90;;;;;;;19.41;70.29;101538.50;6308160;22;20085;-86
2022/06/18 03:03:50;;;;;;;8.00;5.63;;;;;;;19.46;70.64;101549.59;6308072;22;19999;-86
2022/06/18 03:06:19;;;;;;;9.77;5.40;;;;;;;19.41;70.76;101550.38;6308163;22;20043;-86
2022/06/18 03:08:46;;;;;;;8.55;6.10;;;;;;;19.34;70.62;101537.88;6307943;22;20022;-86
2022/06/18 03:13:57;;;;;;;6.75;5.25;;;;;;;19.35;71.14;101548.63;6309678;22;20018;-86
2022/06/18 03:16:23;;;;;;;9.57;5.67;;;;;;;19.35;71.07;101553.31;6307656;22;20011;-87
2022/06/18 03:18:56;;;;;;;9.60;5.93;;;;;;;19.30;71.08;101545.00;6309608;22;20222;-86
2022/06/18 03:21:38;;;;;;;10.30;5.53;;;;;;;19.30;71.00;101550.50;6307698;22;20007;-86
2022/06/18 03:24:05;;;;;;;8.85;5.70;;;;;;;19.27;71.38;101551.84;6308131;22;20003;-86
2022/06/18 03:26:31;;;;;;;10.13;5.60;;;;;;;19.28;71.44;101554.34;6307818;22;20497;-86
2022/06/18 03:28:57;;;;;;;10.55;6.00;;;;;;;19.24;71.53;101547.69;6307871;22;20474;-86
2022/06/18 03:31:22;;;;;;;8.93;5.65;;;;;;;19.21;71.48;101548.19;6306712;22;20003;-87
2022/06/18 03:33:59;;;;;;;9.53;5.70;;;;;;;19.22;71.54;101554.50;6307455;22;20015;-86
2022/06/18 03:36:24;;;;;;;9.60;5.25;;;;;;;19.21;71.70;101553.69;6309578;22;20003;-86
2022/06/18 03:38:51;;;;;;;7.35;5.50;;;;;;;19.22;71.61;101551.75;6307374;22;20049;-86
2022/06/18 03:41:22;;;;;;;7.80;5.67;;;;;;;19.20;72.12;101556.69;6307453;22;20082;-86
2022/06/18 03:43:48;;;;;;;8.88;5.32;;;;;;;19.19;71.96;101550.38;6307824;22;20023;-86
2022/06/18 03:46:17;;;;;;;9.82;5.78;;;;;;;19.19;72.04;101555.88;6307351;22;20007;-86
2022/06/18 03:48:52;;;;;;;7.95;6.55;;;;;;;19.27;71.63;101571.09;6307592;22;20027;-86
2022/06/18 03:51:19;;;;;;;8.20;5.93;;;;;;;19.18;72.19;101556.97;6306738;22;20096;-86
2022/06/18 03:53:47;;;;;;;10.70;5.72;;;;;;;19.22;71.79;101554.50;6307707;22;20328;-86
2022/06/18 03:56:17;;;;;;;7.75;5.90;;;;;;;19.25;71.83;101557.59;6307717;22;20011;-86
2022/06/18 03:58:43;;;;;;;11.60;5.80;;;;;;;19.33;71.95;101563.75;6307170;22;20086;-86
2022/06/18 04:01:10;;;;;;;9.27;5.82;;;;;;;19.33;73.85;101555.50;6307310;22;20049;-86
2022/06/18 04:03:38;;;;;;;8.00;6.07;;;;;;;19.33;72.18;101552.75;6307236;22;20015;-86
2022/06/18 04:06:06;;;;;;;8.25;5.57;;;;;;;19.38;72.11;101559.09;6307375;22;20003;-86
2022/06/18 04:08:31;;;;;;;7.40;6.15;;;;;;;19.39;71.68;101557.22;6308766;22;20008;-86
2022/06/18 04:10:58;;;;;;;9.70;6.13;;;;;;;19.36;71.48;101538.47;6307387;22;20022;-86
2022/06/18 04:13:23;;;;;;;13.52;6.50;;;;;;;19.45;72.06;101545.16;6307358;22;20003;-87
2022/06/18 04:15:49;;;;;;;12.02;6.18;;;;;;;19.42;71.59;101531.94;6307517;22;20069;-87
2022/06/18 04:18:21;;;;;;;11.57;6.53;;;;;;;19.41;71.54;101533.84;6309105;22;20022;-86
2022/06/18 04:20:48;;;;;;;8.05;6.43;;;;;;;19.46;71.91;101544.09;6307177;22;20037;-86
2022/06/18 04:23:15;;;;;;;8.18;6.10;;;;;;;19.56;73.40;101546.94;6307351;22;20109;-86
2022/06/18 04:25:42;;;;;;;10.93;6.00;;;;;;;19.58;72.20;101549.44;6306921;22;20433;-87
2022/06/18 04:28:09;;;;;;;8.27;6.33;;;;;;;19.56;71.35;101546.09;6307484;22;20075;-86
2022/06/18 04:30:35;;;;;;;11.80;6.97;;;;;;;19.54;71.62;101540.03;6307560;22;20018;-86
2022/06/18 04:33:01;;;;;;;11.00;6.50;;;;;;;19.63;71.28;101552.22;6255752;22;20437;-86
2022/06/18 04:35:37;;;;;;;10.87;7.00;;;;;;;19.60;71.22;101544.50;6307271;22;20011;-86
2022/06/18 04:38:12;;;;;;;10.25;7.30;;;;;;;19.68;70.68;101545.94;6307216;22;20014;-86
2022/06/18 04:40:37;;;;;;;13.73;7.18;;;;;;;19.69;70.95;101551.19;6307328;22;20003;-87
2022/06/18 04:43:06;;;;;;;12.40;7.18;;;;;;;19.76;71.14;101545.47;6308409;22;20336;-86
2022/06/18 04:45:32;;;;;;;14.17;7.17;;;;;;;19.79;70.74;101547.75;6308408;22;20125;-86
2022/06/18 04:47:59;;;;;;;16.27;7.63;;;;;;;19.78;70.45;101544.19;6306897;22;20009;-86
2022/06/18 04:50:29;;;;;;;10.80;7.82;;;;;;;19.84;70.71;101538.69;6307780;22;20061;-87
2022/06/18 04:52:54;;;;;;;11.50;7.88;;;;;;;19.85;70.52;101535.69;6306315;22;20003;-87
2022/06/18 04:55:23;;;;;;;11.43;8.40;;;;;;;19.90;70.48;101549.50;6306993;22;20073;-86
2022/06/18 04:57:50;;;;;;;10.07;7.97;;;;;;;19.97;70.30;101552.03;6306827;22;19999;-86
2022/06/18 05:00:17;;;;;;;15.07;8.65;;;;;;;19.97;70.62;101550.13;6306455;22;20076;-86
2022/06/18 05:02:43;;;;;;;14.65;8.48;;;;;;;20.05;70.03;101547.97;6307029;22;20011;-86
2022/06/18 05:05:16;;;;;;;14.73;9.10;;;;;;;20.12;70.41;101554.09;6306649;22;20432;-86
2022/06/18 05:07:42;;;;;;;12.10;9.55;;;;;;;20.10;69.93;101548.84;6308607;22;19999;-87
2022/06/18 05:10:08;;;;;;;13.33;9.63;;;;;;;20.10;69.99;101540.59;6306754;22;20017;-87
2022/06/18 05:12:37;;;;;;;12.60;9.77;;;;;;;20.15;70.11;101546.16;6306958;22;20050;-86
2022/06/18 05:15:06;;;;;;;16.13;10.13;;;;;;;20.22;70.35;101545.09;6306420;22;20014;-86
2022/06/18 05:17:36;;;;;;;15.53;10.03;;;;;;;20.23;69.81;101542.06;6306866;22;20124;-86
2022/06/18 05:20:10;;;;;;;16.17;10.18;;;;;;;20.36;69.51;101553.72;6306917;22;20010;-87
2022/06/18 05:22:35;;;;;;;11.27;8.45;;;;;;;20.43;68.98;101557.09;6306979;22;20011;-87
2022/06/18 05:25:06;;;;;;;18.87;9.50;;;;;;;20.49;68.93;101559.63;6280917;22;20307;-91
2022/06/18 05:27:35;;;;;;;13.80;9.25;;;;;;;20.59;68.50;101560.78;6308037;22;20075;-86
2022/06/18 05:30:08;;;;;;;13.02;9.05;;;;;;;20.67;68.36;101563.91;6306253;22;20019;-87
2022/06/18 05:32:33;;;;;;;14.27;9.65;;;;;;;20.74;68.39;101558.16;6305600;22;20023;-88
2022/06/18 05:35:05;;;;;;;16.30;9.17;;;;;;;20.84;68.03;101569.22;6249922;22;20008;-87
2022/06/18 05:37:34;;;;;;;12.77;8.48;;;;;;;20.93;68.19;101571.50;6249868;22;20035;-87
2022/06/18 05:39:59;;;;;;;13.80;9.27;;;;;;;21.01;67.49;101577.34;6250179;22;20011;-87
2022/06/18 05:42:25;;;;;;;11.17;8.30;;;;;;;21.08;66.90;101576.25;6277427;22;20000;-87
2022/06/18 05:44:56;;;;;;;11.55;8.20;;;;;;;21.19;66.50;101587.06;6277289;22;20015;-86
2022/06/18 05:47:25;;;;;;;11.70;8.35;;;;;;;21.20;67.27;101566.66;6250107;22;20003;-87
2022/06/18 05:49:56;;;;;;;13.60;8.53;;;;;;;21.27;66.50;101560.88;6277240;22;20004;-87
2022/06/18 05:52:24;;;;;;;14.23;7.82;;;;;;;21.35;65.89;101573.34;6276673;22;20410;-87
2022/06/18 05:55:03;;;;;;;;;;;;;;;;;;;;;
2022/06/18 05:57:31;;;;;;;13.23;8.10;;;;;;;21.50;64.79;101573.41;6276824;22;20074;-87
2022/06/18 05:59:56;;;;;;;13.45;7.68;;;;;;;21.54;64.11;101570.97;6224469;22;20018;-87
2022/06/18 06:02:23;;;;;;;15.57;7.70;;;;;;;21.66;64.99;101570.72;6250226;22;20386;-87
2022/06/18 06:04:51;;;;;;;16.92;7.57;;;;;;;21.73;63.58;101566.59;6224262;22;20341;-87
2022/06/18 06:07:22;;;;;;;12.55;7.40;;;;;;;21.81;63.44;101565.22;6249719;22;20014;-87
2022/06/18 06:12:37;;;;;;;14.88;8.10;;;;;;;21.99;62.53;101546.44;6277257;22;20042;-87
2022/06/18 06:15:07;;;;;;;14.15;7.50;;;;;;;22.01;61.37;101549.75;6276731;22;20003;-86
2022/06/18 06:17:33;;;;;;;10.55;7.13;;;;;;;22.06;61.34;101545.06;6249519;22;20303;-87
2022/06/18 06:20:19;;;;;;;13.98;7.28;;;;;;;22.15;60.82;101544.53;6249755;22;20441;-87
2022/06/18 06:22:47;;;;;;;14.73;7.00;;;;;;;22.16;60.78;101537.88;6250842;22;20019;-87
2022/06/18 06:25:12;;;;;;;17.33;7.43;;;;;;;22.24;60.92;101560.25;6252023;22;20317;-87
2022/06/18 06:27:38;;;;;;;14.00;6.87;;;;;;;22.30;60.67;101551.97;6226639;22;20094;-86
2022/06/18 06:30:04;;;;;;;17.65;7.05;;;;;;;22.35;58.87;101557.50;6278711;22;20384;-88
2022/06/18 06:32:29;;;;;;;12.80;6.63;;;;;;;22.37;59.58;101549.78;6250672;22;20000;-86
2022/06/18 06:34:58;;;;;;;13.67;7.20;;;;;;;22.41;59.03;101551.72;6226455;22;20008;-86
2022/06/18 06:37:23;;;;;;;13.18;6.75;;;;;;;22.54;59.92;101561.38;6251731;22;20015;-86
2022/06/18 06:39:49;;;;;;;13.63;6.43;;;;;;;22.62;59.74;101557.22;6278821;22;20004;-86
2022/06/18 06:42:17;;;;;;;20.27;7.80;;;;;;;22.74;58.23;101565.22;6251651;22;20035;-87
2022/06/18 06:44:42;;;;;;;17.30;6.78;;;;;;;22.80;58.25;101547.47;6251390;22;20000;-86
2022/06/18 06:47:08;;;;;;;16.43;7.10;;;;;;;22.84;58.90;101540.28;6251420;22;20315;-87
2022/06/18 06:49:33;;;;;;;15.02;7.18;;;;;;;22.97;58.29;101555.44;6251494;22;20483;-87
2022/06/18 06:51:59;;;;;;;23.37;7.40;;;;;;;23.03;57.71;101553.47;6250805;22;20007;-87
2022/06/18 06:54:27;;;;;;;13.67;7.00;;;;;;;23.04;57.70;101546.84;6200805;22;20025;-87
2022/06/18 06:59:52;;;;;;;16.33;7.28;;;;;;;23.03;57.54;101550.72;6255510;22;20022;-88
2022/06/18 07:02:20;;;;;;;22.87;7.00;;;;;;;23.08;57.51;101551.53;6226297;22;20015;-88
2022/06/18 07:04:48;;;;;;;12.93;6.95;;;;;;;23.10;57.03;101551.28;6251054;22;20007;-87
2022/06/18 07:07:26;;;;;;;;;;;;;;;;;;;;;
2022/06/18 07:09:52;;;;;;;18.13;7.28;;;;;;;23.12;56.93;101549.88;6278618;22;20098;-87
2022/06/18 07:12:20;;;;;;;14.73;7.07;;;;;;;23.19;56.78;101559.81;6250886;22;20027;-87
2022/06/18 07:14:45;;;;;;;14.70;7.70;;;;;;;23.23;57.97;101547.91;6225932;22;20032;-88
2022/06/18 07:17:31;;;;;;;13.23;7.07;;;;;;;23.42;57.83;101561.91;6250967;22;20063;-88
2022/06/18 07:20:00;;;;;;;14.63;6.70;;;;;;;23.49;57.81;101553.31;6278664;22;20007;-88
2022/06/18 07:22:36;;;;;;;14.50;6.65;;;;;;;23.57;57.31;101557.41;6277362;22;20003;-88
2022/06/18 07:25:06;;;;;;;17.67;6.93;;;;;;;23.61;57.60;101548.25;6251364;22;20007;-89
2022/06/18 07:27:34;;;;;;;16.08;7.45;;;;;;;23.67;56.85;101545.44;6251247;22;20097;-88
2022/06/18 07:30:00;;;;;;;15.90;6.73;;;;;;;23.79;57.37;101554.22;6251219;22;20011;-87
2022/06/18 07:32:29;;;;;;;17.67;7.20;;;;;;;23.85;56.78;101550.28;6250833;22;20007;-88
2022/06/18 07:35:07;;;;;;;14.95;6.90;;;;;;;23.85;56.36;101539.22;6250525;22;20012;-88
2022/06/18 07:37:35;;;;;;;15.30;6.40;;;;;;;23.89;55.95;101551.41;6251083;22;20010;-88
2022/06/18 07:40:06;;;;;;;18.13;7.57;;;;;;;23.91;55.47;101548.34;6251177;22;20011;-88
2022/06/18 07:42:31;;;;;;;16.88;6.78;;;;;;;23.99;55.81;101550.50;6251883;22;20011;-87
2022/06/18 07:44:59;;;;;;;15.75;6.75;;;;;;;24.08;55.99;101542.38;6251038;22;20304;-87
2022/06/18 07:47:25;;;;;;;14.23;7.23;;;;;;;24.23;55.41;101553.34;6250914;22;20008;-87
2022/06/18 07:49:58;;;;;;;11.20;6.68;;;;;;;24.27;55.93;101537.78;6251037;22;20429;-87
2022/06/18 07:52:28;;;;;;;16.98;7.32;;;;;;;24.42;55.60;101534.03;6225883;22;20015;-88
2022/06/18 07:54:58;;;;;;;19.00;6.90;;;;;;;24.58;55.20;101537.50;6277695;22;20014;-87
2022/06/18 07:57:26;;;;;;;19.67;7.82;;;;;;;24.75;55.38;101539.81;6201357;22;20007;-87
2022/06/18 07:59:59;;;;;;;16.60;6.82;;;;;;;24.90;54.77;101538.81;6250973;22;20501;-87
2022/06/18 08:02:28;;;;;;;17.85;7.53;;;;;;;24.92;54.20;101531.03;6250984;22;20035;-87
2022/06/18 08:04:53;;;;;;;16.70;7.22;;;;;;;25.13;54.86;101534.38;6250489;22;20034;-87
2022/06/18 08:07:22;;;;;;;14.80;6.77;;;;;;;25.16;54.72;101528.22;6251092;22;20007;-87
2022/06/18 08:09:47;;;;;;;14.68;7.35;;;;;;;25.21;53.21;101519.00;6250693;22;20018;-87
2022/06/18 08:12:16;;;;;;;15.07;6.93;;;;;;;25.18;52.78;101527.91;6251119;22;20004;-86
2022/06/18 08:14:41;;;;;;;13.55;6.40;;;;;;;25.20;53.58;101520.94;6277896;22;20003;-86
2022/06/18 08:17:14;;;;;;;15.47;7.17;;;;;;;25.32;52.77;101511.38;6225564;22;20069;-86
2022/06/18 08:19:39;;;;;;;18.27;7.13;;;;;;;25.53;52.29;101511.91;6250226;22;20050;-86
2022/06/18 08:22:07;;;;;;;22.43;7.30;;;;;;;25.66;52.16;101515.88;6276806;22;20003;-85
2022/06/18 08:24:33;;;;;;;15.05;6.35;;;;;;;25.64;52.49;101509.78;6225753;22;20086;-85
2022/06/18 08:27:01;;;;;;;18.92;6.50;;;;;;;25.73;52.67;101508.81;6250697;22;20398;-85
2022/06/18 08:29:27;;;;;;;19.10;6.90;;;;;;;25.78;51.20;101502.34;6250610;22;20019;-85
2022/06/18 08:31:53;;;;;;;18.33;7.50;;;;;;;25.96;51.03;101510.97;6250498;22;20004;-85
2022/06/18 08:34:19;;;;;;;15.30;6.28;;;;;;;26.04;51.67;101491.66;6277181;22;20405;-85
2022/06/18 08:36:45;;;;;;;22.27;7.20;;;;;;;26.22;51.32;101498.28;6277445;22;20059;-86
2022/06/18 08:39:11;;;;;;;15.00;6.60;;;;;;;26.27;50.52;101495.41;6225343;22;20019;-86
2022/06/18 08:42:17;;;;;;;18.90;6.93;;;;;;;26.41;51.01;101514.91;6277316;22;20061;-86
2022/06/18 08:45:04;;;;;;;13.77;6.68;;;;;;;26.57;50.89;101512.63;6277309;22;20010;-86
2022/06/18 08:47:36;;;;;;;14.27;6.53;;;;;;;26.81;51.12;101510.81;6250541;22;20090;-86
2022/06/18 08:50:26;;;;;;;15.60;6.90;;;;;;;26.96;50.23;101504.94;6250373;22;20017;-86
2022/06/18 08:53:12;;;;;;;16.77;6.63;;;;;;;27.05;48.39;101507.81;6250586;22;20031;-86
2022/06/18 08:55:42;;;;;;;17.02;6.75;;;;;;;27.08;47.91;101502.44;6218789;22;20011;-86
2022/06/18 08:58:30;;;;;;;14.13;6.43;;;;;;;27.21;49.04;101506.34;6249751;22;20007;-86
2022/06/18 09:01:01;;;;;;;14.87;6.60;;;;;;;27.38;48.11;101510.47;6277660;22;20046;-86
2022/06/18 09:03:27;;;;;;;15.65;6.40;;;;;;;27.46;47.97;101512.47;6276932;22;20027;-86
2022/06/18 09:06:15;;;;;;;15.70;6.63;;;;;;;27.56;48.43;101514.22;6277444;22;20418;-86
2022/06/18 09:09:03;;;;;;;15.88;6.70;;;;;;;27.60;47.50;101512.47;6277439;22;20004;-86
2022/06/18 09:11:31;;;;;;;18.95;6.10;;;;;;;27.63;46.01;101512.63;6276991;22;20010;-86
2022/06/18 09:14:04;;;;;;;16.52;6.00;;;;;;;27.83;46.44;101510.50;6250222;22;20011;-86
2022/06/18 09:17:00;;;;;;;14.07;6.17;;;;;;;28.05;46.61;101517.22;6277425;22;20422;-86
2022/06/18 09:19:30;;;;;;;23.58;6.85;;;;;;;28.08;46.24;101523.00;6233415;22;20330;-86
2022/06/18 09:22:00;;;;;;;11.25;6.10;;;;;;;28.13;45.41;101516.47;6249598;22;20011;-86
2022/06/18 09:24:43;;;;;;;14.80;6.50;;;;;;;28.30;46.18;101513.78;6249933;22;20011;-86
2022/06/18 09:27:33;;;;;;;17.33;7.30;;;;;;;28.47;46.48;101518.63;6249708;22;20000;-86
2022/06/18 09:30:22;;;;;;;23.83;7.40;;;;;;;28.46;45.15;101503.00;6249366;22;20004;-86
2022/06/18 09:32:56;;;;;;;18.05;6.82;;;;;;;28.47;44.26;101520.59;6249392;22;20062;-86
2022/06/18 09:35:32;;;;;;;20.52;7.95;;;;;;;28.51;45.01;101514.03;6276621;22;20019;-86
2022/06/18 09:38:05;;;;;;;18.67;8.77;;;;;;;28.72;44.77;101519.06;6250179;22;20016;-86
2022/06/18 09:40:49;;;;;;;18.70;7.60;;;;;;;28.64;45.11;101505.91;6249304;22;20012;-89
2022/06/18 09:47:04;;;;;;;22.70;8.30;;;;;;;28.97;45.07;101503.53;6185186;23;20017;-88
2022/06/18 09:49:46;;;;;;;20.10;7.93;;;;;;;29.15;44.01;101496.00;6249286;22;20057;-88
2022/06/18 09:52:18;;;;;;;19.33;8.23;;;;;;;29.34;43.42;101490.16;6249702;22;20038;-85
2022/06/18 10:01:53;;;;;;;20.27;7.65;;;;;;;29.73;43.22;101495.88;6276700;22;20034;-86
2022/06/18 10:07:34;;;;;;;19.50;8.35;;;;;;;29.96;41.11;101485.34;6276597;22;20018;-86
2022/06/18 10:10:13;;;;;;;15.25;7.60;;;;;;;30.07;41.87;101478.25;6249767;22;20003;-86
2022/06/18 10:12:53;;;;;;;23.70;8.70;;;;;;;30.11;41.65;101488.78;6250040;22;20004;-87
2022/06/18 10:15:20;;;;;;;18.80;9.02;;;;;;;29.99;41.95;101478.28;6249168;22;20011;-87
2022/06/18 10:18:04;;;;;;;17.98;7.55;;;;;;;30.25;42.14;101487.41;6249784;22;20008;-87
2022/06/18 10:21:01;;;;;;;13.65;7.20;;;;;;;30.48;41.47;101483.56;6249286;22;20055;-87
2022/06/18 10:23:52;;;;;;;19.25;8.05;;;;;;;30.52;40.89;101474.16;6249679;22;20456;-87
2022/06/18 10:26:24;;;;;;;20.53;7.27;;;;;;;30.92;40.14;101473.75;6249922;22;20014;-87
2022/06/18 10:29:10;;;;;;;20.35;7.78;;;;;;;31.11;39.61;101478.13;6276460;22;20004;-87
2022/06/18 10:32:04;;;;;;;19.65;7.35;;;;;;;31.13;39.45;101461.78;6249906;22;20310;-87
2022/06/18 10:34:41;;;;;;;16.70;7.15;;;;;;;31.53;39.15;101461.28;6296810;22;20448;-86
2022/06/18 10:37:30;;;;;;;17.65;6.82;;;;;;;31.79;38.43;101465.84;6306186;22;20012;-87
2022/06/18 10:40:19;;;;;;;15.17;6.90;;;;;;;31.79;38.44;101463.06;6287284;22;20007;-86
2022/06/18 10:43:16;;;;;;;17.42;7.18;;;;;;;31.94;38.10;101459.56;6306235;22;20091;-86
2022/06/18 10:45:48;;;;;;;12.07;6.45;;;;;;;32.10;37.29;101448.50;6306104;22;20007;-86
2022/06/18 10:48:20;;;;;;;16.75;7.57;;;;;;;32.27;36.41;101441.06;6307400;22;20037;-86
2022/06/18 10:50:58;;;;;;;14.98;6.85;;;;;;;32.51;35.84;101435.44;6305499;22;20007;-86
2022/06/18 10:53:29;;;;;;;20.67;7.00;;;;;;;32.60;36.13;101437.31;6306217;22;19999;-86
2022/06/18 10:56:06;;;;;;;19.75;7.10;;;;;;;33.09;35.46;101445.69;6307136;22;20091;-86
2022/06/18 10:58:34;;;;;;;18.27;7.35;;;;;;;32.95;35.56;101437.63;6305876;22;20015;-86
2022/06/18 11:01:39;;;;;;;14.98;7.30;;;;;;;33.11;35.49;101434.09;6306120;22;20007;-86
2022/06/18 11:04:23;;;;;;;17.15;6.90;;;;;;;33.25;35.49;101425.28;6306159;22;20424;-86
2022/06/18 11:06:57;;;;;;;15.37;7.20;;;;;;;33.62;34.58;101439.16;6307012;22;20367;-86
2022/06/18 11:09:36;;;;;;;17.90;6.57;;;;;;;33.80;34.04;101420.00;6309555;22;20003;-86
2022/06/18 11:12:31;;;;;;;19.27;6.90;;;;;;;34.17;33.02;101416.94;6307941;22;20420;-86
2022/06/18 11:15:00;;;;;;;18.08;6.95;;;;;;;34.33;33.77;101412.13;6303434;22;20014;-86
2022/06/18 11:17:36;;;;;;;14.57;7.07;;;;;;;34.52;33.15;101404.91;6307540;22;20003;-86
2022/06/18 11:20:14;;;;;;;18.20;6.80;;;;;;;35.54;32.49;101403.06;6307646;22;20003;-86
2022/06/18 11:22:47;;;;;;;18.25;6.65;;;;;;;37.14;29.97;101397.56;6307170;22;20003;-86
2022/06/18 11:25:24;;;;;;;23.80;7.10;;;;;;;39.33;27.38;101388.34;6308827;22;20034;-86
2022/06/18 11:27:55;;;;;;;17.35;7.28;;;;;;;41.09;23.87;101390.25;6307055;22;20098;-86
2022/06/18 11:30:34;;;;;;;16.98;7.30;;;;;;;42.53;23.24;101378.53;6307441;22;20037;-86
2022/06/18 11:33:04;;;;;;;18.87;7.30;;;;;;;43.60;21.50;101369.81;6302320;22;20772;-87
2022/06/18 11:35:42;;;;;;;17.90;7.80;;;;;;;43.48;21.31;101369.59;6277712;22;20004;-86
2022/06/18 11:38:35;;;;;;;14.88;7.50;;;;;;;44.58;20.66;101371.72;6225940;22;20094;-86
2022/06/18 11:41:12;;;;;;;16.05;7.05;;;;;;;45.03;19.88;101355.31;6250826;22;20010;-86
2022/06/18 11:43:45;;;;;;;16.33;7.50;;;;;;;45.63;18.99;101346.53;6278081;22;20430;-86
2022/06/18 11:46:20;;;;;;;16.60;7.50;;;;;;;46.12;18.56;101343.59;6251010;22;20299;-86
2022/06/18 11:49:08;;;;;;;21.35;7.13;;;;;;;46.77;17.24;101349.56;6277734;22;20007;-87
2022/06/18 11:52:13;;;;;;;17.92;7.90;;;;;;;47.94;18.17;101340.44;6250109;22;20010;-86
2022/06/18 11:54:50;;;;;;;19.30;7.45;;;;;;;48.79;16.59;101340.59;6275166;22;20014;-87
2022/06/18 11:57:24;;;;;;;18.52;7.63;;;;;;;49.38;15.13;101326.31;6250818;22;20014;-87
2022/06/18 12:00:36;;;;;;;;;;;;;;;;;;;;;
2022/06/18 12:03:22;;;;;;;22.55;8.48;;;;;;;50.60;13.51;101322.97;6259697;22;20087;-87
2022/06/18 12:05:56;;;;;;;18.70;9.10;;;;;;;50.75;13.95;101314.44;6277747;22;20035;-87
2022/06/18 12:08:22;;;;;;;18.60;8.48;;;;;;;51.53;13.82;101316.78;6250332;22;20433;-87
2022/06/18 12:11:10;;;;;;;18.58;9.00;;;;;;;51.60;13.29;101313.50;6277308;22;20061;-87
2022/06/18 12:13:48;;;;;;;21.97;9.70;;;;;;;51.20;13.89;101309.75;6249742;22;20503;-86